createdAt,value
2022-11-13T00:01:45.897Z,99459.88
2022-11-13T00:04:31.490Z,99464.25
2022-11-13T00:07:16.821Z,99461.66
2022-11-13T00:10:01.970Z,99463.41
2022-11-13T00:12:47.133Z,99451.09
2022-11-13T00:15:32.659Z,99454.63
2022-11-13T00:18:18.243Z,99452.91
2022-11-13T00:21:16.968Z,99436.22
2022-11-13T00:24:02.423Z,99430.06
2022-11-13T00:26:47.706Z,99430.06
2022-11-13T00:29:33.376Z,99433.56
2022-11-13T00:32:20.397Z,99428.28
2022-11-13T00:35:06.445Z,99419.47
2022-11-13T00:37:51.620Z,99415.09
2022-11-13T00:40:36.683Z,99415.09
2022-11-13T00:43:22.077Z,99410.72
2022-11-13T00:46:08.032Z,99416.00
2022-11-13T00:48:53.304Z,99416.88
2022-11-13T00:51:38.860Z,99410.72
2022-11-13T00:54:24.159Z,99411.59
2022-11-13T00:57:09.756Z,99411.56
2022-11-13T00:59:55.070Z,99412.44
2022-11-13T01:02:40.589Z,99408.03
2022-11-13T01:05:26.692Z,99405.34
2022-11-13T01:08:13.970Z,99408.00
2022-11-13T01:10:59.505Z,99422.09
2022-11-13T01:13:46.634Z,99412.41
2022-11-13T01:16:32.090Z,99402.75
2022-11-13T01:19:17.263Z,99410.63
2022-11-13T01:22:02.824Z,99406.22
2022-11-13T01:24:48.145Z,99404.50
2022-11-13T01:27:36.512Z,99400.09
2022-11-13T01:30:21.924Z,99399.19
2022-11-13T01:33:07.227Z,99396.59
2022-11-13T01:35:52.632Z,99396.59
2022-11-13T01:38:38.424Z,99388.72
2022-11-13T01:41:27.678Z,99388.72
2022-11-13T01:44:14.840Z,99382.59
2022-11-13T01:46:59.963Z,99380.84
2022-11-13T01:49:46.628Z,99381.72
2022-11-13T01:52:36.383Z,99367.69
2022-11-13T01:55:21.640Z,99365.00
2022-11-13T01:58:10.210Z,99354.44
2022-11-13T02:00:55.757Z,99359.69
2022-11-13T02:03:41.166Z,99355.25
2022-11-13T02:06:31.048Z,99358.78
2022-11-13T02:09:19.928Z,99358.78
2022-11-13T02:12:07.953Z,99366.69
2022-11-13T02:14:55.251Z,99364.06
2022-11-13T02:17:58.987Z,99367.53
2022-11-13T02:21:15.878Z,99362.25
2022-11-13T02:24:29.490Z,99357.91
2022-11-13T02:27:29.424Z,99359.63
2022-11-13T02:30:29.956Z,99353.50
2022-11-13T02:33:24.390Z,99352.63
2022-11-13T02:36:11.978Z,99351.72
2022-11-13T02:39:03.112Z,99350.81
2022-11-13T02:41:48.182Z,99348.09
2022-11-13T02:44:33.404Z,99343.75
2022-11-13T02:47:18.452Z,99342.00
2022-11-13T02:50:04.659Z,99333.25
2022-11-13T02:52:50.054Z,99323.53
2022-11-13T02:55:35.702Z,99333.16
2022-11-13T02:58:20.835Z,99325.28
2022-11-13T03:01:06.660Z,99311.22
2022-11-13T03:03:59.079Z,99315.66
2022-11-13T03:06:44.485Z,99306.84
2022-11-13T03:09:30.546Z,99300.69
2022-11-13T03:12:15.634Z,99301.56
2022-11-13T03:15:01.423Z,99305.16
2022-11-13T03:17:46.941Z,99290.25
2022-11-13T03:20:32.392Z,99299.00
2022-11-13T03:23:17.566Z,99291.13
2022-11-13T03:26:07.511Z,99288.50
2022-11-13T03:28:52.802Z,99277.09
2022-11-13T03:31:38.094Z,99273.59
2022-11-13T03:34:23.568Z,99273.56
2022-11-13T03:37:08.811Z,99273.63
2022-11-13T03:39:54.085Z,99271.84
2022-11-13T03:42:39.556Z,99268.34
2022-11-13T03:45:24.661Z,99271.84
2022-11-13T03:48:10.128Z,99271.84
2022-11-13T03:50:55.975Z,99264.81
2022-11-13T03:53:41.246Z,99268.31
2022-11-13T03:56:26.364Z,99269.19
2022-11-13T03:59:12.029Z,99271.84
2022-11-13T04:01:57.479Z,99271.84
2022-11-13T04:04:42.603Z,99269.22
2022-11-13T04:07:27.918Z,99265.69
2022-11-13T04:10:13.981Z,99263.94
2022-11-13T04:12:59.443Z,99258.63
2022-11-13T04:15:44.707Z,99259.50
2022-11-13T04:18:30.626Z,99254.97
2022-11-13T04:21:16.082Z,99247.91
2022-11-13T04:24:01.264Z,99252.25
2022-11-13T04:26:46.563Z,99249.63
2022-11-13T04:29:31.952Z,99252.25
2022-11-13T04:32:17.337Z,99252.25
2022-11-13T04:35:03.185Z,99240.91
2022-11-13T04:37:48.308Z,99240.81
2022-11-13T04:40:33.731Z,99230.34
2022-11-13T04:43:18.946Z,99233.78
2022-11-13T04:46:04.477Z,99241.75
2022-11-13T04:48:49.557Z,99234.69
2022-11-13T04:51:34.958Z,99233.81
2022-11-13T04:54:24.315Z,99240.81
2022-11-13T04:57:13.006Z,99239.06
2022-11-13T04:59:58.335Z,99236.38
2022-11-13T05:02:43.692Z,99225.88
2022-11-13T05:05:29.736Z,99221.50
2022-11-13T05:08:14.795Z,99215.34
2022-11-13T05:11:00.802Z,99214.41
2022-11-13T05:13:46.540Z,99214.44
2022-11-13T05:16:31.914Z,99210.09
2022-11-13T05:19:17.636Z,99209.22
2022-11-13T05:22:03.111Z,99206.59
2022-11-13T05:24:48.270Z,99213.63
2022-11-13T05:27:33.532Z,99219.75
2022-11-13T05:30:18.862Z,99224.19
2022-11-13T05:33:04.127Z,99218.91
2022-11-13T05:35:49.324Z,99220.66
2022-11-13T05:38:35.477Z,99221.56
2022-11-13T05:41:22.437Z,99212.75
2022-11-13T05:44:07.915Z,99210.94
2022-11-13T05:46:53.199Z,99205.72
2022-11-13T05:49:38.603Z,99200.31
2022-11-13T05:52:24.112Z,99198.56
2022-11-13T05:55:09.369Z,99188.09
2022-11-13T05:57:54.884Z,99192.44
2022-11-13T06:00:40.251Z,99192.44
2022-11-13T06:03:25.460Z,99187.19
2022-11-13T06:06:14.062Z,99179.28
2022-11-13T06:09:00.825Z,99171.38
2022-11-13T06:11:46.103Z,99174.00
2022-11-13T06:14:31.544Z,99168.69
2022-11-13T06:17:16.844Z,99171.34
2022-11-13T06:20:02.099Z,99159.94
2022-11-13T06:22:47.384Z,99158.25
2022-11-13T06:25:32.512Z,99156.44
2022-11-13T06:28:17.579Z,99157.34
2022-11-13T06:31:08.437Z,99161.69
2022-11-13T06:33:54.248Z,99156.44
2022-11-13T06:36:39.651Z,99143.31
2022-11-13T06:39:24.685Z,99144.16
2022-11-13T06:42:10.156Z,99144.19
2022-11-13T06:44:55.316Z,99148.59
2022-11-13T06:47:40.538Z,99145.09
2022-11-13T06:50:25.946Z,99138.97
2022-11-13T06:53:11.096Z,99143.34
2022-11-13T06:55:57.139Z,99138.06
2022-11-13T06:58:43.788Z,99138.09
2022-11-13T07:01:29.041Z,99136.31
2022-11-13T07:04:14.294Z,99132.84
2022-11-13T07:06:59.536Z,99133.69
2022-11-13T07:09:45.011Z,99135.47
2022-11-13T07:12:30.401Z,99136.41
2022-11-13T07:15:16.490Z,99124.09
2022-11-13T07:18:03.406Z,99130.22
2022-11-13T07:20:48.969Z,99131.13
2022-11-13T07:23:37.003Z,99135.53
2022-11-13T07:26:23.037Z,99131.19
2022-11-13T07:29:08.449Z,99129.44
2022-11-13T07:31:54.316Z,99126.84
2022-11-13T07:34:39.663Z,99119.84
2022-11-13T07:37:24.979Z,99119.00
2022-11-13T07:40:11.260Z,99122.53
2022-11-13T07:43:01.025Z,99118.16
2022-11-13T07:45:46.280Z,99114.66
2022-11-13T07:48:32.143Z,99110.28
2022-11-13T07:51:18.119Z,99112.03
2022-11-13T07:54:03.540Z,99112.94
2022-11-13T07:56:49.000Z,99101.53
2022-11-13T07:59:34.176Z,99098.03
2022-11-13T08:02:22.311Z,99094.56
2022-11-13T08:05:10.160Z,99088.41
2022-11-13T08:07:55.239Z,99087.53
2022-11-13T08:10:40.953Z,99088.44
2022-11-13T08:13:26.144Z,99079.69
2022-11-13T08:16:11.402Z,99067.34
2022-11-13T08:18:56.824Z,99068.03
2022-11-13T08:21:42.297Z,99066.75
2022-11-13T08:24:27.671Z,99065.25
2022-11-13T08:27:12.997Z,99061.41
2022-11-13T08:29:58.080Z,99060.78
2022-11-13T08:32:43.407Z,99062.00
2022-11-13T08:35:29.727Z,99056.22
2022-11-13T08:38:15.179Z,99060.81
2022-11-13T08:41:07.396Z,99059.97
2022-11-13T08:43:53.858Z,99065.34
2022-11-13T08:46:39.200Z,99061.00
2022-11-13T08:49:24.883Z,99054.88
2022-11-13T08:52:10.503Z,99057.53
2022-11-13T08:54:56.107Z,99061.03
2022-11-13T08:57:41.667Z,99050.50
2022-11-13T09:00:28.432Z,99051.34
2022-11-13T09:03:13.931Z,99043.41
2022-11-13T09:05:59.122Z,99037.19
2022-11-13T09:08:44.525Z,99034.44
2022-11-13T09:11:29.612Z,99026.47
2022-11-13T09:14:15.363Z,99035.16
2022-11-13T09:17:00.745Z,99033.22
2022-11-13T09:19:45.917Z,99038.19
2022-11-13T09:22:31.083Z,99040.41
2022-11-13T09:25:16.791Z,99034.50
2022-11-13T09:28:03.976Z,99025.34
2022-11-13T09:30:49.132Z,99027.78
2022-11-13T09:33:36.009Z,99004.63
2022-11-13T09:36:21.377Z,98986.47
2022-11-13T09:39:06.937Z,98967.06
2022-11-13T09:41:55.046Z,98962.13
2022-11-13T09:44:47.678Z,98937.16
2022-11-13T09:47:44.152Z,98919.06
2022-11-13T09:50:31.542Z,98909.72
2022-11-13T09:53:17.835Z,98902.56
2022-11-13T09:56:17.876Z,98888.22
2022-11-13T09:59:39.721Z,98881.09
2022-11-13T10:02:25.154Z,98880.06
2022-11-13T10:05:23.513Z,98886.81
2022-11-13T10:08:18.018Z,98869.22
2022-11-13T10:11:22.824Z,98871.28
2022-11-13T10:14:23.871Z,98892.03
2022-11-13T10:17:22.020Z,98890.78
2022-11-13T10:20:18.802Z,98887.53
2022-11-13T10:23:28.621Z,98881.47
2022-11-13T10:26:19.775Z,98867.78
2022-11-13T10:29:27.196Z,98870.38
2022-11-13T10:32:22.985Z,98850.25
2022-11-13T10:35:38.648Z,98848.78
2022-11-13T10:38:36.250Z,98841.19
2022-11-13T10:41:22.101Z,98829.59
2022-11-13T10:44:21.240Z,98827.66
2022-11-13T10:47:15.606Z,98820.44
2022-11-13T10:50:11.976Z,98819.81
2022-11-13T10:52:58.191Z,98815.19
2022-11-13T10:55:45.371Z,98807.69
2022-11-13T10:58:31.301Z,98793.81
2022-11-13T11:01:23.730Z,98797.00
2022-11-13T11:04:19.618Z,98789.84
2022-11-13T11:07:21.379Z,98778.69
2022-11-13T11:10:21.311Z,98774.16
2022-11-13T11:13:12.109Z,98767.13
2022-11-13T11:16:01.652Z,98759.28
2022-11-13T11:18:58.003Z,98760.66
2022-11-13T11:21:44.617Z,98762.78
2022-11-13T11:24:38.520Z,98762.41
2022-11-13T11:27:35.121Z,98753.66
2022-11-13T11:30:26.464Z,98767.31
2022-11-13T11:33:50.477Z,98756.44
2022-11-13T11:36:48.656Z,98757.41
2022-11-13T11:39:42.386Z,98748.66
2022-11-13T11:42:48.637Z,98742.25
2022-11-13T11:45:39.399Z,98754.25
2022-11-13T11:48:30.998Z,98736.59
2022-11-13T11:51:40.740Z,98739.91
2022-11-13T11:54:42.124Z,98742.53
2022-11-13T11:57:51.372Z,98736.59
2022-11-13T12:00:40.987Z,98734.41
2022-11-13T12:03:35.659Z,98754.22
2022-11-13T12:06:40.121Z,98739.25
2022-11-13T12:09:31.926Z,98737.59
2022-11-13T12:12:32.384Z,98730.50
2022-11-13T12:16:06.020Z,98741.56
2022-11-13T12:19:05.999Z,98742.56
2022-11-13T12:21:54.152Z,98747.31
2022-11-13T12:24:59.559Z,98752.00
2022-11-13T12:27:58.503Z,98752.97
2022-11-13T12:30:46.629Z,98748.69
2022-11-13T12:34:04.337Z,98751.78
2022-11-13T12:36:51.170Z,98744.28
2022-11-13T12:39:53.974Z,98743.25
2022-11-13T12:42:58.122Z,98741.56
2022-11-13T12:45:54.325Z,98735.69
2022-11-13T12:48:42.492Z,98729.47
2022-11-13T12:51:39.600Z,98731.34
2022-11-13T12:54:29.872Z,98721.25
2022-11-13T12:57:18.117Z,98727.34
2022-11-13T13:00:24.368Z,98727.75
2022-11-13T13:03:32.652Z,98710.13
2022-11-13T13:06:40.935Z,98715.59
2022-11-13T13:10:03.606Z,98702.31
2022-11-13T13:13:13.001Z,98695.44
2022-11-13T13:16:04.417Z,98704.66
2022-11-13T13:18:49.631Z,98697.06
2022-11-13T13:21:43.372Z,98679.56
2022-11-13T13:24:34.765Z,98685.22
2022-11-13T13:27:36.686Z,98672.41
2022-11-13T13:30:26.143Z,98673.47
2022-11-13T13:33:30.539Z,98673.47
2022-11-13T13:36:46.231Z,98663.66
2022-11-13T13:40:19.162Z,98655.22
2022-11-13T13:43:30.178Z,98650.59
2022-11-13T13:46:29.491Z,98651.47
2022-11-13T13:49:21.944Z,98648.50
2022-11-13T13:52:07.259Z,98638.31
2022-11-13T13:54:52.558Z,98636.03
2022-11-13T13:57:42.130Z,98621.47
2022-11-13T14:00:28.745Z,98623.84
2022-11-13T14:03:20.278Z,98635.16
2022-11-13T14:06:24.634Z,98632.19
2022-11-13T14:09:16.921Z,98626.84
2022-11-13T14:12:18.901Z,98623.13
2022-11-13T14:15:05.845Z,98616.38
2022-11-13T14:17:51.505Z,98617.78
2022-11-13T14:20:47.209Z,98612.31
2022-11-13T14:23:37.449Z,98613.50
2022-11-13T14:26:23.096Z,98600.53
2022-11-13T14:29:22.842Z,98599.53
2022-11-13T14:32:16.073Z,98600.00
2022-11-13T14:35:03.100Z,98600.31
2022-11-13T14:37:48.713Z,98601.50
2022-11-13T14:40:35.656Z,98593.53
2022-11-13T14:43:26.394Z,98605.97
2022-11-13T14:46:44.428Z,98598.13
2022-11-13T14:49:33.125Z,98600.63
2022-11-13T14:52:27.172Z,98597.25
2022-11-13T14:55:29.564Z,98591.53
2022-11-13T14:58:26.019Z,98589.78
2022-11-13T15:01:25.315Z,98572.38
2022-11-13T15:04:10.743Z,98569.84
2022-11-13T15:07:00.091Z,98564.34
2022-11-13T15:09:47.393Z,98566.25
2022-11-13T15:12:32.705Z,98561.22
2022-11-13T15:15:25.145Z,98571.16
2022-11-13T15:18:16.973Z,98565.16
2022-11-13T15:21:02.254Z,98569.03
2022-11-13T15:23:47.489Z,98565.66
2022-11-13T15:26:32.810Z,98566.97
2022-11-13T15:29:17.972Z,98564.56
2022-11-13T15:32:03.629Z,98556.84
2022-11-13T15:34:48.788Z,98551.69
2022-11-13T15:37:33.950Z,98550.22
2022-11-13T15:40:19.125Z,98547.66
2022-11-13T15:43:04.582Z,98535.44
2022-11-13T15:45:49.725Z,98531.56
2022-11-13T15:48:35.017Z,98530.78
2022-11-13T15:51:35.572Z,98525.75
2022-11-13T15:54:33.060Z,98527.72
2022-11-13T15:57:21.738Z,98527.19
2022-11-13T16:00:13.917Z,98529.84
2022-11-13T16:02:59.298Z,98525.47
2022-11-13T16:05:44.902Z,98521.22
2022-11-13T16:08:30.369Z,98523.25
2022-11-13T16:11:17.630Z,98529.75
2022-11-13T16:14:03.058Z,98538.84
2022-11-13T16:16:50.486Z,98535.59
2022-11-13T16:19:37.595Z,98540.41
2022-11-13T16:22:25.451Z,98536.88
2022-11-13T16:25:13.663Z,98553.97
2022-11-13T16:27:59.491Z,98531.09
2022-11-13T16:30:48.225Z,98544.47
2022-11-13T16:33:33.547Z,98533.97
2022-11-13T16:36:21.350Z,98544.59
2022-11-13T16:39:16.903Z,98540.28
2022-11-13T16:42:02.321Z,98550.28
2022-11-13T16:44:47.448Z,98554.91
2022-11-13T16:47:32.712Z,98558.63
2022-11-13T16:50:26.817Z,98559.91
2022-11-13T16:53:11.952Z,98554.94
2022-11-13T16:55:57.091Z,98558.56
2022-11-13T16:58:45.155Z,98564.16
2022-11-13T17:01:30.553Z,98568.00
2022-11-13T17:04:15.724Z,98560.31
2022-11-13T17:07:01.118Z,98563.13
2022-11-13T17:09:47.956Z,98552.66
2022-11-13T17:12:37.805Z,98542.13
2022-11-13T17:15:23.139Z,98545.50
2022-11-13T17:18:10.458Z,98545.59
2022-11-13T17:20:56.124Z,98543.09
2022-11-13T17:23:41.255Z,98547.69
2022-11-13T17:26:27.169Z,98559.41
2022-11-13T17:29:12.691Z,98558.03
2022-11-13T17:31:58.329Z,98560.53
2022-11-13T17:34:43.870Z,98565.47
2022-11-13T17:37:28.933Z,98567.41
2022-11-13T17:40:14.593Z,98559.31
2022-11-13T17:42:59.718Z,98553.13
2022-11-13T17:45:50.711Z,98550.59
2022-11-13T17:48:36.372Z,98549.66
2022-11-13T17:51:21.934Z,98548.28
2022-11-13T17:54:07.073Z,98554.25
2022-11-13T17:56:52.485Z,98551.59
2022-11-13T17:59:37.685Z,98556.16
2022-11-13T18:02:22.848Z,98565.03
2022-11-13T18:05:09.836Z,98553.53
2022-11-13T18:07:55.199Z,98549.97
2022-11-13T18:10:41.941Z,98548.28
2022-11-13T18:13:27.783Z,98557.03
2022-11-13T18:16:18.846Z,98545.63
2022-11-13T18:19:06.921Z,98552.84
2022-11-13T18:21:52.078Z,98553.81
2022-11-13T18:24:37.305Z,98555.81
2022-11-13T18:27:22.984Z,98552.34
2022-11-13T18:30:08.728Z,98548.75
2022-11-13T18:32:53.880Z,98552.34
2022-11-13T18:35:39.596Z,98558.53
2022-11-13T18:38:24.750Z,98548.03
2022-11-13T18:41:15.512Z,98541.19
2022-11-13T18:44:01.024Z,98543.88
2022-11-13T18:46:45.982Z,98542.31
2022-11-13T18:49:31.647Z,98540.56
2022-11-13T18:52:16.692Z,98544.22
2022-11-13T18:55:02.123Z,98546.81
2022-11-13T18:57:47.295Z,98535.47
2022-11-13T19:00:32.827Z,98532.91
2022-11-13T19:03:17.887Z,98536.47
2022-11-13T19:06:06.431Z,98536.50
2022-11-13T19:09:00.610Z,98533.78
2022-11-13T19:11:46.345Z,98526.00
2022-11-13T19:14:31.842Z,98522.66
2022-11-13T19:17:17.080Z,98521.84
2022-11-13T19:20:02.414Z,98525.34
2022-11-13T19:22:47.905Z,98518.38
2022-11-13T19:25:33.407Z,98511.47
2022-11-13T19:28:18.732Z,98509.00
2022-11-13T19:31:12.787Z,98517.16
2022-11-13T19:34:00.086Z,98506.59
2022-11-13T19:36:47.792Z,98496.03
2022-11-13T19:39:32.999Z,98498.75
2022-11-13T19:42:18.211Z,98497.00
2022-11-13T19:45:03.344Z,98493.53
2022-11-13T19:47:48.572Z,98493.53
2022-11-13T19:50:34.059Z,98496.16
2022-11-13T19:53:19.122Z,98504.03
2022-11-13T19:56:05.875Z,98498.91
2022-11-13T19:58:52.327Z,98495.44
2022-11-13T20:01:37.841Z,98499.06
2022-11-13T20:04:23.243Z,98491.34
2022-11-13T20:07:11.164Z,98490.63
2022-11-13T20:09:56.469Z,98497.84
2022-11-13T20:12:41.745Z,98494.34
2022-11-13T20:15:28.084Z,98490.81
2022-11-13T20:18:14.301Z,98496.03
2022-11-13T20:21:00.320Z,98492.53
2022-11-13T20:23:46.574Z,98496.97
2022-11-13T20:26:32.005Z,98494.44
2022-11-13T20:29:17.259Z,98483.94
2022-11-13T20:32:02.917Z,98489.31
2022-11-13T20:34:48.053Z,98491.25
2022-11-13T20:37:34.240Z,98498.41
2022-11-13T20:40:19.437Z,98502.00
2022-11-13T20:43:04.867Z,98495.91
2022-11-13T20:45:50.225Z,98492.41
2022-11-13T20:48:35.630Z,98488.94
2022-11-13T20:51:24.296Z,98489.06
2022-11-13T20:54:10.038Z,98496.16
2022-11-13T20:56:55.396Z,98497.91
2022-11-13T20:59:40.573Z,98499.69
2022-11-13T21:02:25.718Z,98503.28
2022-11-13T21:05:11.512Z,98506.78
2022-11-13T21:07:56.620Z,98504.19
2022-11-13T21:10:42.002Z,98496.22
2022-11-13T21:13:29.264Z,98499.66
2022-11-13T21:16:16.032Z,98490.06
2022-11-13T21:19:02.535Z,98496.16
2022-11-13T21:21:47.663Z,98496.16
2022-11-13T21:24:33.033Z,98493.56
2022-11-13T21:27:18.468Z,98485.66
2022-11-13T21:30:04.158Z,98484.72
2022-11-13T21:32:49.564Z,98478.53
2022-11-13T21:35:35.111Z,98475.00
2022-11-13T21:38:20.519Z,98476.78
2022-11-13T21:41:24.396Z,98476.81
2022-11-13T21:44:10.725Z,98479.38
2022-11-13T21:46:56.435Z,98472.47
2022-11-13T21:49:42.318Z,98470.72
2022-11-13T21:52:28.508Z,98471.47
2022-11-13T21:55:13.999Z,98463.56
2022-11-13T21:57:59.437Z,98460.88
2022-11-13T22:00:44.902Z,98462.63
2022-11-13T22:03:30.672Z,98460.81
2022-11-13T22:06:24.624Z,98451.97
2022-11-13T22:09:14.299Z,98459.81
2022-11-13T22:11:59.378Z,98453.63
2022-11-13T22:14:44.843Z,98437.97
2022-11-13T22:17:30.049Z,98449.53
2022-11-13T22:20:15.599Z,98447.69
2022-11-13T22:23:00.827Z,98443.31
2022-11-13T22:25:46.709Z,98451.22
2022-11-13T22:28:33.763Z,98451.25
2022-11-13T22:31:22.266Z,98449.66
2022-11-13T22:34:07.506Z,98445.28
2022-11-13T22:36:52.799Z,98444.50
2022-11-13T22:39:38.274Z,98445.44
2022-11-13T22:42:23.463Z,98426.22
2022-11-13T22:45:22.811Z,98425.41
2022-11-13T22:48:10.782Z,98424.41
2022-11-13T22:50:56.799Z,98419.03
2022-11-13T22:53:47.207Z,98418.97
2022-11-13T22:56:34.262Z,98426.81
2022-11-13T22:59:19.602Z,98428.47
2022-11-13T23:02:04.913Z,98427.56
2022-11-13T23:04:50.124Z,98436.38
2022-11-13T23:07:35.590Z,98432.00
2022-11-13T23:10:20.939Z,98426.81
2022-11-13T23:13:06.792Z,98432.94
2022-11-13T23:15:52.054Z,98426.06
2022-11-13T23:18:38.453Z,98422.50
2022-11-13T23:21:25.193Z,98414.78
2022-11-13T23:24:11.168Z,98408.63
2022-11-13T23:26:56.546Z,98413.84
2022-11-13T23:29:45.906Z,98405.88
2022-11-13T23:32:34.286Z,98395.31
2022-11-13T23:35:19.345Z,98398.75
2022-11-13T23:38:04.541Z,98385.53
2022-11-13T23:40:57.577Z,98375.00
2022-11-13T23:46:48.305Z,98369.63
2022-11-13T23:49:33.690Z,98366.81
2022-11-13T23:52:19.042Z,98360.66
2022-11-13T23:55:04.722Z,98361.44
2022-11-13T23:58:00.838Z,98352.63
